Time;durP1;ratioP1;P1;durP2;ratioP2;P2;SDS_P1;SDS_P2;PMS_P1;PMS_P2;Temp;Humidity;BMP_temperature;BMP_pressure;BME280_temperature;BME280_humidity;BME280_pressure;Samples;Min_cycle;Max_cycle;Signal;HPM_P1;HPM_P2
2022/01/25 00:26:25;;;;;;;;;7.00;6.50;;;;;-146.25;100.00;57879.81;5036621;28;45473;-82
2022/01/25 00:31:29;;;;;;;;;8.75;8.75;;;;;-146.25;100.00;57879.81;5036069;28;45462;-82
2022/01/25 00:33:55;;;;;;;;;7.75;5.75;;;;;-146.25;100.00;57879.81;5036279;28;45425;-83
2022/01/25 00:36:26;;;;;;;;;8.00;7.00;;;;;-146.25;100.00;57879.81;5036391;28;45649;-82
2022/01/25 00:38:53;;;;;;;;;5.75;5.00;;;;;-146.25;100.00;57879.81;5037827;28;46062;-81
2022/01/25 00:41:20;;;;;;;;;6.75;6.25;;;;;-146.25;100.00;57879.81;5039531;28;45953;-81
2022/01/25 00:43:46;;;;;;;;;6.25;5.50;;;;;-146.25;100.00;57879.81;5039517;28;45557;-83
2022/01/25 00:46:13;;;;;;;;;6.50;5.50;;;;;-146.25;100.00;57879.81;5039778;28;45351;-83
2022/01/25 00:48:44;;;;;;;;;6.75;6.00;;;;;-146.25;100.00;57879.81;5039238;28;46088;-82
2022/01/25 00:54:16;;;;;;;;;7.75;7.00;;;;;-146.25;100.00;57879.81;5039487;28;45492;-82
2022/01/25 00:56:47;;;;;;;;;7.00;6.00;;;;;-146.25;100.00;57879.81;5040597;28;45565;-83
2022/01/25 00:59:20;;;;;;;;;8.00;7.00;;;;;-146.25;100.00;57879.81;5039619;28;46300;-82
2022/01/25 01:01:48;;;;;;;;;7.75;6.50;;;;;-146.25;100.00;57879.81;5039417;28;45529;-83
2022/01/25 01:04:15;;;;;;;;;7.25;6.75;;;;;-146.25;100.00;57879.81;5039066;28;45235;-80
2022/01/25 01:06:43;;;;;;;;;7.00;7.00;;;;;-146.25;100.00;57879.81;5039332;28;45565;-82
2022/01/25 01:09:10;;;;;;;;;6.25;6.00;;;;;-146.25;100.00;57879.81;5038828;28;45402;-82
2022/01/25 01:11:47;;;;;;;;;5.25;5.00;;;;;-146.25;100.00;57879.81;5038835;28;45177;-83
2022/01/25 01:14:20;;;;;;;;;5.25;5.00;;;;;-146.25;100.00;57879.81;5038813;28;45251;-83
2022/01/25 01:30:38;;;;;;;;;7.00;7.00;;;;;-146.25;100.00;57879.81;5001262;28;46015;-78
2022/01/25 01:44:26;;;;;;;;;7.00;6.75;;;;;-146.25;100.00;57879.81;5015815;28;45222;-81
2022/01/25 01:47:08;;;;;;;;;6.75;6.75;;;;;-146.25;100.00;57879.81;5036078;28;45592;-83
2022/01/25 01:49:42;;;;;;;;;11.00;6.00;;;;;-146.25;100.00;57879.81;5037957;28;45333;-82
2022/01/25 01:52:09;;;;;;;;;7.50;6.75;;;;;-146.25;100.00;57879.81;5038228;28;46246;-83
2022/01/25 01:54:35;;;;;;;;;5.25;5.00;;;;;-146.25;100.00;57879.81;5038161;28;45419;-83
2022/01/25 01:57:01;;;;;;;;;6.75;6.50;;;;;-146.25;100.00;57879.81;5038237;28;45308;-83
2022/01/25 01:59:27;;;;;;;;;9.00;6.00;;;;;-146.25;100.00;57879.81;5038396;28;45445;-83
2022/01/25 02:01:53;;;;;;;;;8.50;7.00;;;;;-146.25;100.00;57879.81;5038256;28;45323;-84
2022/01/25 02:04:20;;;;;;;;;8.25;6.25;;;;;-146.25;100.00;57879.81;5038411;28;45402;-82
2022/01/25 02:06:46;;;;;;;;;6.50;6.00;;;;;-146.25;100.00;57879.81;5038222;28;45509;-83
2022/01/25 02:09:13;;;;;;;;;6.75;6.00;;;;;-146.25;100.00;57879.81;5038096;28;45444;-83
2022/01/25 02:11:39;;;;;;;;;7.25;6.25;;;;;-146.25;100.00;57879.81;5037763;28;45516;-83
2022/01/25 02:14:08;;;;;;;;;8.75;5.75;;;;;-146.25;100.00;57879.81;5037592;28;45329;-81
2022/01/25 02:24:45;;;;;;;;;5.00;5.00;;;;;-146.25;100.00;57879.81;5037587;28;45393;-83
2022/01/25 02:27:11;;;;;;;;;7.00;6.00;;;;;-146.25;100.00;57879.81;5037721;28;45359;-83
2022/01/25 02:29:38;;;;;;;;;7.00;6.50;;;;;-146.25;100.00;57879.81;5037740;28;45314;-82
2022/01/25 02:32:05;;;;;;;;;7.75;7.00;;;;;-146.25;100.00;57879.81;5037575;28;46252;-83
2022/01/25 02:34:31;;;;;;;;;7.75;7.00;;;;;-146.25;100.00;57879.81;5037688;28;45279;-83
2022/01/25 02:36:56;;;;;;;;;7.00;6.00;;;;;-146.25;100.00;57879.81;5037884;28;45480;-82
2022/01/25 02:39:22;;;;;;;;;7.00;6.25;;;;;-146.25;100.00;57879.81;5038282;28;45279;-83
2022/01/25 02:41:48;;;;;;;;;7.50;7.00;;;;;-146.25;100.00;57879.81;5037697;28;45346;-83
2022/01/25 02:44:23;;;;;;;;;7.25;7.00;;;;;-146.25;100.00;57879.81;5037754;28;45283;-84
2022/01/25 02:49:16;;;;;;;;;7.00;7.00;;;;;-146.25;100.00;57879.81;5037785;28;45272;-83
2022/01/25 02:51:48;;;;;;;;;9.75;7.00;;;;;-146.25;100.00;57879.81;5037159;28;46054;-80
2022/01/25 02:54:16;;;;;;;;;7.00;7.00;;;;;-146.25;100.00;57879.81;5037006;28;45490;-84
2022/01/25 02:56:44;;;;;;;;;7.75;7.00;;;;;-146.25;100.00;57879.81;5037152;28;45513;-83
2022/01/25 02:59:12;;;;;;;;;12.25;7.00;;;;;-146.25;100.00;57879.81;5037505;28;45350;-83
2022/01/25 03:01:39;;;;;;;;;6.00;5.75;;;;;-146.25;100.00;57879.81;5037006;28;46054;-83
2022/01/25 03:04:06;;;;;;;;;10.00;7.00;;;;;-146.25;100.00;57879.81;5035947;28;45485;-83
2022/01/25 03:06:32;;;;;;;;;8.50;7.25;;;;;-146.25;100.00;57879.81;5037214;28;45409;-82
2022/01/25 03:08:59;;;;;;;;;8.25;6.75;;;;;-146.25;100.00;57879.81;5037176;28;45580;-82
2022/01/25 03:11:25;;;;;;;;;9.50;7.25;;;;;-146.25;100.00;57879.81;5037470;28;46745;-82
2022/01/25 03:13:55;;;;;;;;;7.75;7.00;;;;;-146.25;100.00;57879.81;5037165;28;45465;-83
2022/01/25 03:16:37;;;;;;;;;12.00;10.25;;;;;-146.25;100.00;57879.81;5037046;28;45244;-83
2022/01/25 03:19:29;;;;;;;;;9.25;7.75;;;;;-146.25;100.00;57879.81;5037057;28;45532;-81
2022/01/25 03:21:56;;;;;;;;;6.00;6.00;;;;;-146.25;100.00;57879.81;5036705;28;46037;-84
2022/01/25 03:24:22;;;;;;;;;7.25;7.00;;;;;-146.25;100.00;57879.81;5035498;28;45420;-84
2022/01/25 03:26:48;;;;;;;;;14.50;13.00;;;;;-146.25;100.00;57879.81;5036821;28;45403;-82
2022/01/25 03:29:14;;;;;;;;;23.75;21.75;;;;;-146.25;100.00;57879.81;5036767;28;45236;-83
2022/01/25 03:31:40;;;;;;;;;10.75;10.50;;;;;-146.25;100.00;57879.81;5036792;28;45486;-82
2022/01/25 03:34:06;;;;;;;;;12.75;11.50;;;;;-146.25;100.00;57879.81;5036681;28;45529;-84
2022/01/25 03:36:33;;;;;;;;;16.00;14.50;;;;;-146.25;100.00;57879.81;5036694;28;45350;-84
2022/01/25 03:38:59;;;;;;;;;58.00;45.00;;;;;-146.25;100.00;57879.81;5037231;28;45484;-83
2022/01/25 03:41:26;;;;;;;;;9.00;7.00;;;;;-146.25;100.00;57879.81;5036996;28;45442;-83
2022/01/25 03:43:54;;;;;;;;;6.75;6.50;;;;;-146.25;100.00;57879.81;5036648;28;45232;-82
2022/01/25 03:46:33;;;;;;;;;8.50;6.00;;;;;-146.25;100.00;57879.81;5036852;28;45173;-82
2022/01/25 03:51:43;;;;;;;;;10.75;10.25;;;;;-146.25;100.00;57879.81;5036561;28;45887;-82
2022/01/25 03:54:09;;;;;;;;;10.75;10.75;;;;;-146.25;100.00;57879.81;5036542;28;45417;-83
2022/01/25 03:56:37;;;;;;;;;11.00;10.25;;;;;-146.25;100.00;57879.81;5036769;28;45521;-84
2022/01/25 03:59:05;;;;;;;;;6.75;6.00;;;;;-146.25;100.00;57879.81;5036807;28;45288;-83
2022/01/25 04:01:32;;;;;;;;;5.00;5.00;;;;;-146.25;100.00;57879.81;5036584;28;45336;-80
2022/01/25 04:04:01;;;;;;;;;6.50;5.00;;;;;-146.25;100.00;57879.81;5036603;28;45448;-84
2022/01/25 04:06:31;;;;;;;;;5.00;4.50;;;;;-146.25;100.00;57879.81;5036888;28;45439;-80
2022/01/25 04:09:02;;;;;;;;;7.00;5.25;;;;;-146.25;100.00;57879.81;5037067;28;45353;-82
2022/01/25 04:11:28;;;;;;;;;7.25;6.50;;;;;-146.25;100.00;57879.81;5036493;28;45444;-84
2022/01/25 04:13:56;;;;;;;;;5.75;5.75;;;;;-146.25;100.00;57879.81;5037858;28;45550;-83
2022/01/25 04:16:30;;;;;;;;;6.00;5.00;;;;;-146.25;100.00;57879.81;5039892;28;45204;-84
2022/01/25 04:19:07;;;;;;;;;6.00;6.00;;;;;-146.25;100.00;57879.81;5042062;28;45220;-84
2022/01/25 04:26:48;;;;;;;;;7.75;5.25;;;;;-146.25;100.00;57879.81;5041753;28;45398;-84
2022/01/25 04:29:14;;;;;;;;;7.75;6.00;;;;;-146.25;100.00;57879.81;5055562;28;45235;-78
2022/01/25 04:31:40;;;;;;;;;7.00;7.00;;;;;-146.25;100.00;57879.81;5062964;28;45289;-84
2022/01/25 04:34:13;;;;;;;;;6.75;6.00;;;;;-146.25;100.00;57879.81;5039400;28;45726;-84
2022/01/25 04:51:13;;;;;;;;;7.00;5.50;;;;;-146.25;100.00;57879.81;5039831;28;45355;-81
2022/01/25 04:53:16;;;;;;;;;6.75;6.00;;;;;-146.25;100.00;57879.81;5033289;28;45547;-80
2022/01/25 04:55:57;;;;;;;;;10.00;10.00;;;;;-146.25;100.00;57879.81;5038892;28;45531;-82
2022/01/25 04:58:41;;;;;;;;;18.00;15.25;;;;;-146.25;100.00;57879.81;5039029;28;45536;-84
2022/01/25 05:01:06;;;;;;;;;10.25;9.00;;;;;-146.25;100.00;57879.81;5039331;28;45417;-84
2022/01/25 05:03:52;;;;;;;;;12.25;11.75;;;;;-146.25;100.00;57879.81;5039421;28;46150;-83
2022/01/25 05:06:18;;;;;;;;;6.00;5.75;;;;;-146.25;100.00;57879.81;5039258;28;45219;-82
2022/01/25 05:08:49;;;;;;;;;55.00;46.25;;;;;-146.25;100.00;57879.81;5038692;28;45408;-80
2022/01/25 05:11:31;;;;;;;;;72.00;56.50;;;;;-146.25;100.00;57879.81;5039348;28;45263;-83
2022/01/25 05:14:15;;;;;;;;;19.50;18.75;;;;;-146.25;100.00;57879.81;5038809;28;45243;-83
2022/01/25 05:17:00;;;;;;;;;22.25;19.50;;;;;-146.25;100.00;57879.81;5038933;28;45393;-83
2022/01/25 05:22:04;;;;;;;;;18.75;17.75;;;;;-146.25;100.00;57879.81;5038934;28;45425;-84
2022/01/25 05:22:27;;;;;;;;;8.50;8.50;;;;;-146.25;100.00;57879.81;5038589;28;45562;-81
2022/01/25 05:24:54;;;;;;;;;16.00;16.00;;;;;-146.25;100.00;57879.81;5037150;28;45511;-84
2022/01/25 05:27:23;;;;;;;;;6.00;5.75;;;;;-146.25;100.00;57879.81;5037407;28;45504;-84
2022/01/25 05:29:50;;;;;;;;;5.75;5.25;;;;;-146.25;100.00;57879.81;5038725;28;45504;-84
2022/01/25 05:32:16;;;;;;;;;3.00;3.00;;;;;-146.25;100.00;57879.81;5038798;28;46048;-82
2022/01/25 05:34:42;;;;;;;;;11.00;11.00;;;;;-146.25;100.00;57879.81;5038239;28;46356;-83
2022/01/25 05:37:08;;;;;;;;;5.00;3.00;;;;;-146.25;100.00;57879.81;5038490;28;45332;-83
2022/01/25 05:39:36;;;;;;;;;4.50;4.50;;;;;-146.25;100.00;57879.81;5039157;28;45398;-83
2022/01/25 05:44:55;;;;;;;;;10.75;10.75;;;;;-146.25;100.00;57879.81;5038264;28;46088;-84
2022/01/25 05:47:29;;;;;;;;;8.25;7.00;;;;;-146.25;100.00;57879.81;5038761;28;45436;-83
2022/01/25 05:49:54;;;;;;;;;9.75;7.00;;;;;-146.25;100.00;57879.81;5038509;28;45450;-83
2022/01/25 05:52:20;;;;;;;;;6.25;5.50;;;;;-146.25;100.00;57879.81;5038760;28;45391;-82
2022/01/25 05:54:45;;;;;;;;;7.00;3.50;;;;;-146.25;100.00;57879.81;5038370;28;45404;-84
2022/01/25 05:57:11;;;;;;;;;3.00;3.00;;;;;-146.25;100.00;57879.81;5037966;28;45321;-80
2022/01/25 05:59:37;;;;;;;;;7.25;6.75;;;;;-146.25;100.00;57879.81;5038586;28;45572;-83
2022/01/25 06:02:04;;;;;;;;;3.00;3.00;;;;;-146.25;100.00;57879.81;5038990;28;45373;-83
2022/01/25 06:04:30;;;;;;;;;3.00;3.00;;;;;-146.25;100.00;57879.81;5037021;28;45450;-82
2022/01/25 06:06:55;;;;;;;;;5.00;5.00;;;;;-146.25;100.00;57879.81;5038071;28;45223;-81
2022/01/25 06:09:24;;;;;;;;;6.00;5.75;;;;;-146.25;100.00;57879.81;5038449;28;45235;-83
2022/01/25 06:11:53;;;;;;;;;15.50;13.75;;;;;-146.25;100.00;57879.81;5038431;28;45431;-82
2022/01/25 06:14:20;;;;;;;;;3.00;3.00;;;;;-146.25;100.00;57879.81;5037811;28;46019;-82
2022/01/25 06:16:46;;;;;;;;;3.00;2.75;;;;;-146.25;100.00;57879.81;5037774;28;45432;-83
2022/01/25 06:19:11;;;;;;;;;2.50;2.25;;;;;-146.25;100.00;57879.81;5037824;28;45459;-82
2022/01/25 06:21:37;;;;;;;;;3.50;1.25;;;;;-146.25;100.00;57879.81;5038461;28;45473;-84
2022/01/25 06:24:03;;;;;;;;;2.00;2.00;;;;;-146.25;100.00;57879.81;5038033;28;45985;-83
2022/01/25 06:26:29;;;;;;;;;2.50;2.00;;;;;-146.25;100.00;57879.81;5037664;28;45600;-83
2022/01/25 06:28:55;;;;;;;;;1.50;1.50;;;;;-146.25;100.00;57879.81;5036909;28;45390;-79
2022/01/25 06:31:21;;;;;;;;;3.00;3.00;;;;;-146.25;100.00;57879.81;5036999;28;45396;-81
2022/01/25 06:33:48;;;;;;;;;2.50;2.50;;;;;-146.25;100.00;57879.81;5036416;28;45512;-81
2022/01/25 06:36:14;;;;;;;;;2.00;2.00;;;;;-146.25;100.00;57879.81;5035472;28;45581;-80
2022/01/25 06:38:41;;;;;;;;;3.00;3.00;;;;;-146.25;100.00;57879.81;5051400;28;45377;-81
2022/01/25 06:41:09;;;;;;;;;3.00;3.00;;;;;-146.25;100.00;57879.81;5036529;28;45476;-83
2022/01/25 06:43:36;;;;;;;;;6.00;5.00;;;;;-146.25;100.00;57879.81;5051087;28;46498;-82
2022/01/25 06:46:03;;;;;;;;;7.75;6.00;;;;;-146.25;100.00;57879.81;5035685;28;45420;-83
2022/01/25 06:48:32;;;;;;;;;58.25;46.75;;;;;-146.25;100.00;57879.81;5035846;28;45505;-83
2022/01/25 06:50:58;;;;;;;;;9.75;9.75;;;;;-146.25;100.00;57879.81;5036015;28;45542;-81
2022/01/25 06:53:24;;;;;;;;;23.50;18.50;;;;;-146.25;100.00;57879.81;5053474;28;45722;-82
2022/01/25 06:55:50;;;;;;;;;38.50;32.00;;;;;-146.25;100.00;57879.81;5043624;28;45306;-83
2022/01/25 06:58:16;;;;;;;;;25.75;22.75;;;;;-146.25;100.00;57879.81;5046042;28;45413;-82
2022/01/25 07:00:42;;;;;;;;;29.00;28.00;;;;;-146.25;100.00;57879.81;5044853;28;45530;-79
2022/01/25 07:03:07;;;;;;;;;17.25;15.00;;;;;-146.25;100.00;57879.81;5041857;28;46326;-81
2022/01/25 07:05:35;;;;;;;;;20.75;17.00;;;;;-146.25;100.00;57879.81;5045451;28;45628;-82
2022/01/25 07:08:01;;;;;;;;;10.25;9.75;;;;;-146.25;100.00;57879.81;5046724;28;45814;-83
2022/01/25 07:10:26;;;;;;;;;39.75;35.00;;;;;-146.25;100.00;57879.81;5047465;28;45450;-82
2022/01/25 07:12:52;;;;;;;;;29.50;26.00;;;;;-146.25;100.00;57879.81;5045451;28;46041;-82
2022/01/25 07:15:18;;;;;;;;;19.50;18.50;;;;;-146.25;100.00;57879.81;5052799;28;45355;-82
2022/01/25 07:17:44;;;;;;;;;24.50;21.50;;;;;-146.25;100.00;57879.81;5044597;28;45374;-82
2022/01/25 07:20:11;;;;;;;;;25.00;22.75;;;;;-146.25;100.00;57879.81;5048820;28;45551;-77
2022/01/25 07:22:39;;;;;;;;;21.50;18.00;;;;;-146.25;100.00;57879.81;5046912;28;46203;-83
2022/01/25 07:25:07;;;;;;;;;13.50;13.00;;;;;-146.25;100.00;57879.81;5040209;28;45488;-81
2022/01/25 07:27:33;;;;;;;;;8.25;7.00;;;;;-146.25;100.00;57879.81;5044436;28;45468;-82
2022/01/25 07:29:59;;;;;;;;;11.25;10.00;;;;;-146.25;100.00;57879.81;5045837;28;45382;-81
2022/01/25 07:32:24;;;;;;;;;8.50;6.00;;;;;-146.25;100.00;57879.81;5045364;28;45954;-83
2022/01/25 07:34:50;;;;;;;;;14.25;11.00;;;;;-146.25;100.00;57879.81;5043949;28;45373;-83
2022/01/25 07:37:15;;;;;;;;;52.50;43.25;;;;;-146.25;100.00;57879.81;5038069;28;45481;-81
2022/01/25 07:39:42;;;;;;;;;49.75;42.50;;;;;-146.25;100.00;57879.81;5034232;28;45628;-81
2022/01/25 07:42:09;;;;;;;;;18.00;15.25;;;;;-146.25;100.00;57879.81;5035745;28;45500;-83
2022/01/25 07:44:37;;;;;;;;;23.50;20.75;;;;;-146.25;100.00;57879.81;5040924;28;45504;-81
2022/01/25 07:47:03;;;;;;;;;12.75;11.00;;;;;-146.25;100.00;57879.81;5043661;28;45547;-80
2022/01/25 07:49:30;;;;;;;;;55.25;44.25;;;;;-146.25;100.00;57879.81;5048715;28;45910;-82
2022/01/25 07:51:56;;;;;;;;;79.75;61.50;;;;;-146.25;100.00;57879.81;5046539;28;45436;-82
2022/01/25 07:54:22;;;;;;;;;65.75;52.50;;;;;-146.25;100.00;57879.81;5048448;28;45593;-82
2022/01/25 07:56:48;;;;;;;;;91.00;70.33;;;;;-146.25;100.00;57879.81;5048794;28;45573;-81
2022/01/25 07:59:14;;;;;;;;;63.25;51.25;;;;;-146.25;100.00;57879.81;5050199;28;45513;-84
2022/01/25 08:01:40;;;;;;;;;19.00;15.00;;;;;-146.25;100.00;57879.81;5044649;28;46124;-80
2022/01/25 08:04:08;;;;;;;;;57.00;47.00;;;;;-146.25;100.00;57879.81;5037821;28;45505;-79
2022/01/25 08:06:34;;;;;;;;;93.00;74.67;;;;;-146.25;100.00;57879.81;5038551;28;45488;-82
2022/01/25 08:09:01;;;;;;;;;67.00;51.25;;;;;-146.25;100.00;57879.81;5037337;28;45558;-78
2022/01/25 08:11:28;;;;;;;;;37.25;32.50;;;;;-146.25;100.00;57879.81;5037465;28;45488;-76
2022/01/25 08:14:00;;;;;;;;;62.00;49.25;;;;;-146.25;100.00;57879.81;5034962;28;45898;-79
2022/01/25 08:16:27;;;;;;;;;29.25;27.50;;;;;-146.25;100.00;57879.81;5019063;28;45547;-80
2022/01/25 08:18:52;;;;;;;;;18.50;15.00;;;;;-146.25;100.00;57879.81;5019428;28;45488;-80
2022/01/25 08:21:18;;;;;;;;;27.00;19.25;;;;;-146.25;100.00;57879.81;5018656;28;45568;-79
2022/01/25 08:23:44;;;;;;;;;26.00;25.75;;;;;-146.25;100.00;57879.81;5018663;28;45400;-77
2022/01/25 08:26:09;;;;;;;;;22.25;20.50;;;;;-146.25;100.00;57879.81;5018947;28;45390;-76
2022/01/25 08:28:35;;;;;;;;;38.00;35.25;;;;;-146.25;100.00;57879.81;5019081;28;45919;-76
2022/01/25 08:31:00;;;;;;;;;33.25;28.50;;;;;-146.25;100.00;57879.81;5018216;28;46136;-74
2022/01/25 08:33:26;;;;;;;;;77.75;59.00;;;;;-146.25;100.00;57879.81;5018657;28;45410;-77
2022/01/25 08:35:52;;;;;;;;;77.00;58.75;;;;;-146.25;100.00;57879.81;5018467;28;45527;-75
2022/01/25 08:38:18;;;;;;;;;48.50;43.25;;;;;-146.25;100.00;57879.81;5018545;28;45571;-76
2022/01/25 08:40:43;;;;;;;;;47.00;39.25;;;;;-146.25;100.00;57879.81;5018109;28;45542;-74
2022/01/25 08:43:09;;;;;;;;;69.00;55.75;;;;;-146.25;100.00;57879.81;5018522;28;45525;-74
2022/01/25 08:45:34;;;;;;;;;95.67;71.67;;;;;-146.25;100.00;57879.81;5018674;28;45374;-74
2022/01/25 08:48:00;;;;;;;;;75.00;58.50;;;;;-146.25;100.00;57879.81;5018664;28;45418;-73
2022/01/25 08:50:26;;;;;;;;;66.00;53.00;;;;;-146.25;100.00;57879.81;5018469;28;46129;-74
2022/01/25 08:52:51;;;;;;;;;71.25;56.75;;;;;-146.25;100.00;57879.81;5018210;28;45503;-75
2022/01/25 08:55:17;;;;;;;;;76.75;59.25;;;;;-146.25;100.00;57879.81;5023724;28;45741;-73
2022/01/25 08:57:43;;;;;;;;;54.50;45.25;;;;;-146.25;100.00;57879.81;5037234;28;45336;-74
2022/01/25 09:00:11;;;;;;;;;44.25;36.75;;;;;-146.25;100.00;57879.81;5036506;28;45966;-75
2022/01/25 09:02:37;;;;;;;;;73.00;59.75;;;;;-146.25;100.00;57879.81;5038160;28;45524;-75
2022/01/25 09:05:03;;;;;;;;;109.33;98.33;;;;;-146.25;100.00;57879.81;5038118;28;45407;-73
2022/01/25 09:07:30;;;;;;;;;55.00;44.50;;;;;-146.25;100.00;57879.81;5038164;28;45313;-75
2022/01/25 09:09:55;;;;;;;;;44.25;39.25;;;;;-146.25;100.00;57879.81;5038228;28;45942;-78
2022/01/25 09:12:21;;;;;;;;;65.00;51.00;;;;;-146.25;100.00;57879.81;5038026;28;45308;-75
2022/01/25 09:14:46;;;;;;;;;62.25;49.75;;;;;-146.25;100.00;57879.81;5038024;28;45693;-74
2022/01/25 09:17:13;;;;;;;;;54.25;42.75;;;;;-146.25;100.00;57879.81;5038132;28;45363;-75
2022/01/25 09:19:38;;;;;;;;;49.25;39.75;;;;;-146.25;100.00;57879.81;5037993;28;46225;-76
2022/01/25 09:22:06;;;;;;;;;18.00;17.25;;;;;-146.25;100.00;57879.81;5037634;28;46137;-75
2022/01/25 09:24:32;;;;;;;;;24.25;21.50;;;;;-146.25;100.00;57879.81;5037191;28;45303;-76
2022/01/25 09:26:57;;;;;;;;;9.33;9.33;;;;;-146.25;100.00;57879.81;5037553;28;45534;-75
2022/01/25 09:29:23;;;;;;;;;65.75;49.75;;;;;-146.25;100.00;57879.81;5037278;28;45490;-77
2022/01/25 09:31:49;;;;;;;;;61.25;47.75;;;;;-146.25;100.00;57879.81;5037986;28;45375;-75
2022/01/25 09:34:15;;;;;;;;;35.00;31.25;;;;;-146.25;100.00;57879.81;5037607;28;45482;-74
2022/01/25 09:36:42;;;;;;;;;24.67;22.67;;;;;-146.25;100.00;57879.81;5037245;28;45394;-74
2022/01/25 09:39:07;;;;;;;;;19.00;18.33;;;;;-146.25;100.00;57879.81;5037083;28;45442;-74
2022/01/25 09:41:34;;;;;;;;;23.67;23.00;;;;;-146.25;100.00;57879.81;5036685;28;45533;-74
2022/01/25 09:43:59;;;;;;;;;12.33;10.67;;;;;-146.25;100.00;57879.81;5037138;28;45600;-74
2022/01/25 09:46:25;;;;;;;;;37.00;32.00;;;;;-146.25;100.00;57879.81;5036896;28;45386;-74
2022/01/25 09:48:52;;;;;;;;;14.33;13.67;;;;;-146.25;100.00;57879.81;5036652;28;45326;-74
2022/01/25 09:51:19;;;;;;;;;16.67;16.00;;;;;-146.25;100.00;57879.81;5036885;28;45251;-74
2022/01/25 09:53:45;;;;;;;;;26.00;24.33;;;;;-146.25;100.00;57879.81;5027123;28;45469;-75
2022/01/25 09:56:10;;;;;;;;;15.67;15.00;;;;;-146.25;100.00;57879.81;5037015;28;45340;-72
2022/01/25 09:58:36;;;;;;;;;24.33;22.33;;;;;-146.25;100.00;57879.81;5036240;28;46171;-74
2022/01/25 10:01:03;;;;;;;;;19.33;17.00;;;;;-146.25;100.00;57879.81;5036613;28;45890;-74
2022/01/25 10:03:38;;;;;;;;;10.00;10.00;;;;;-146.25;100.00;57879.81;5036450;28;45425;-74
2022/01/25 10:06:11;;;;;;;;;11.67;10.00;;;;;-146.25;100.00;57879.81;5035332;28;45345;-75
2022/01/25 10:08:39;;;;;;;;;19.00;17.00;;;;;-146.25;100.00;57879.81;5037818;28;46284;-74
2022/01/25 10:11:10;;;;;;;;;16.67;15.67;;;;;-146.25;100.00;57879.81;5035729;28;46158;-75
2022/01/25 10:13:38;;;;;;;;;10.67;10.33;;;;;-146.25;100.00;57879.81;5037945;28;45715;-75
2022/01/25 10:16:06;;;;;;;;;6.33;5.33;;;;;-146.25;100.00;57879.81;5036780;28;45519;-75
2022/01/25 10:18:49;;;;;;;;;15.67;15.00;;;;;-146.25;100.00;57879.81;5036344;28;46239;-75
2022/01/25 10:21:29;;;;;;;;;17.33;15.00;;;;;-146.25;100.00;57879.81;5037830;28;45453;-73
2022/01/25 10:24:14;;;;;;;;;13.00;13.00;;;;;-146.25;100.00;57879.81;5037736;28;45460;-74
2022/01/25 10:26:56;;;;;;;;;8.00;7.00;;;;;-146.25;100.00;57879.81;5038019;28;45409;-74
2022/01/25 10:29:30;;;;;;;;;6.67;6.67;;;;;-146.25;100.00;57879.81;5037425;28;45405;-74
2022/01/25 10:32:13;;;;;;;;;6.00;6.00;;;;;-146.25;100.00;57879.81;5037622;28;45396;-74
2022/01/25 10:34:46;;;;;;;;;8.00;8.00;;;;;-146.25;100.00;57879.81;5038007;28;45479;-74
2022/01/25 10:37:17;;;;;;;;;6.33;5.67;;;;;-146.25;100.00;57879.81;5036899;28;45515;-74
2022/01/25 10:39:45;;;;;;;;;5.00;5.00;;;;;-146.25;100.00;57879.81;5037866;28;46130;-74
2022/01/25 10:42:18;;;;;;;;;5.33;5.33;;;;;-146.25;100.00;57879.81;5037769;28;45417;-74
2022/01/25 10:44:53;;;;;;;;;4.33;4.33;;;;;-146.25;100.00;57879.81;5037922;28;45747;-75
2022/01/25 10:47:36;;;;;;;;;5.67;5.67;;;;;-146.25;100.00;57879.81;5037719;28;45235;-74
2022/01/25 10:50:36;;;;;;;;;21.67;20.67;;;;;-146.25;100.00;57879.81;5037488;28;46037;-74
2022/01/25 10:53:15;;;;;;;;;13.33;13.00;;;;;-146.25;100.00;57879.81;5037364;28;45328;-74
2022/01/25 10:55:43;;;;;;;;;7.00;7.00;;;;;-146.25;100.00;57879.81;5037816;28;45464;-74
2022/01/25 10:58:10;;;;;;;;;5.00;4.67;;;;;-146.25;100.00;57879.81;5037501;28;45509;-74
2022/01/25 11:00:41;;;;;;;;;5.00;4.00;;;;;-146.25;100.00;57879.81;5037154;28;45550;-74
2022/01/25 11:03:06;;;;;;;;;3.00;3.00;;;;;-146.25;100.00;57879.81;5036950;28;45412;-74
2022/01/25 11:05:34;;;;;;;;;5.33;5.00;;;;;-146.25;100.00;57879.81;5037221;28;45378;-75
2022/01/25 11:08:14;;;;;;;;;5.00;5.00;;;;;-146.25;100.00;57879.81;5037671;28;45460;-74
2022/01/25 11:10:54;;;;;;;;;6.00;5.67;;;;;-146.25;100.00;57879.81;5037117;28;45944;-75
2022/01/25 11:13:41;;;;;;;;;4.00;4.00;;;;;-146.25;100.00;57879.81;5037042;28;45417;-75
2022/01/25 11:16:10;;;;;;;;;7.00;4.00;;;;;-146.25;100.00;57879.81;5037207;28;45409;-75
2022/01/25 11:18:36;;;;;;;;;3.00;3.00;;;;;-146.25;100.00;57879.81;5035191;28;45344;-75
2022/01/25 11:21:05;;;;;;;;;5.33;3.67;;;;;-146.25;100.00;57879.81;5034941;28;45348;-74
2022/01/25 11:23:32;;;;;;;;;3.00;3.00;;;;;-146.25;100.00;57879.81;5032538;28;45319;-73
2022/01/25 11:26:04;;;;;;;;;3.00;3.00;;;;;-146.25;100.00;57879.81;5043368;28;45602;-74
2022/01/25 11:28:31;;;;;;;;;4.00;3.00;;;;;-146.25;100.00;57879.81;5043581;28;45464;-74
2022/01/25 11:31:02;;;;;;;;;4.00;4.00;;;;;-146.25;100.00;57879.81;5043987;28;46204;-73
2022/01/25 11:33:30;;;;;;;;;4.67;4.00;;;;;-146.25;100.00;57879.81;5039253;28;45498;-74
2022/01/25 11:35:56;;;;;;;;;4.33;4.00;;;;;-146.25;100.00;57879.81;5042126;28;45589;-74
2022/01/25 11:38:49;;;;;;;;;3.33;3.33;;;;;-146.25;100.00;57879.81;5035248;28;45664;-75
2022/01/25 11:41:19;;;;;;;;;3.00;3.00;;;;;-146.25;100.00;57879.81;5032799;28;46109;-76
2022/01/25 11:44:09;;;;;;;;;3.00;3.00;;;;;-146.25;100.00;57879.81;5035455;28;45621;-74
2022/01/25 11:46:37;;;;;;;;;2.33;2.33;;;;;-146.25;100.00;57879.81;5032671;28;45773;-74
2022/01/25 11:49:17;;;;;;;;;2.67;1.67;;;;;-146.25;100.00;57879.81;5036573;28;45575;-75
2022/01/25 11:51:44;;;;;;;;;2.00;1.33;;;;;-146.25;100.00;57879.81;5036457;28;45423;-75
2022/01/25 11:54:09;;;;;;;;;0.67;0.67;;;;;-146.25;100.00;57879.81;5036237;28;45405;-74
2022/01/25 11:56:40;;;;;;;;;3.00;3.00;;;;;-146.25;100.00;57879.81;5036401;28;45494;-75
2022/01/25 11:59:05;;;;;;;;;4.33;3.33;;;;;-146.25;100.00;57879.81;5036732;28;45770;-75
2022/01/25 12:01:34;;;;;;;;;12.00;11.00;;;;;-146.25;100.00;57879.81;5036553;28;45325;-74
2022/01/25 12:04:05;;;;;;;;;15.33;13.67;;;;;-146.25;100.00;57879.81;5035258;28;45481;-74
2022/01/25 12:06:59;;;;;;;;;9.67;9.33;;;;;-146.25;100.00;57879.81;5036352;28;45465;-74
2022/01/25 12:12:21;;;;;;;;;12.00;11.33;;;;;-146.25;100.00;57879.81;5026955;28;45407;-75
2022/01/25 12:14:51;;;;;;;;;7.67;7.00;;;;;-146.25;100.00;57879.81;5036323;28;45379;-74
2022/01/25 12:17:25;;;;;;;;;15.00;14.67;;;;;-146.25;100.00;57879.81;5036653;28;45319;-74
2022/01/25 12:19:58;;;;;;;;;10.00;9.00;;;;;-146.25;100.00;57879.81;5036635;28;45418;-74
2022/01/25 12:22:35;;;;;;;;;12.33;10.33;;;;;-146.25;100.00;57879.81;5036155;28;45330;-74
2022/01/25 12:25:19;;;;;;;;;10.00;9.00;;;;;-146.25;100.00;57879.81;5036363;28;45303;-74
2022/01/25 12:27:58;;;;;;;;;11.33;8.67;;;;;-146.25;100.00;57879.81;5036500;28;45333;-74
2022/01/25 12:30:27;;;;;;;;;6.67;6.67;;;;;-146.25;100.00;57879.81;5036383;28;45504;-74
2022/01/25 12:33:02;;;;;;;;;13.00;12.00;;;;;-146.25;100.00;57879.81;5035706;28;45291;-74
2022/01/25 12:35:44;;;;;;;;;18.25;17.00;;;;;-146.25;100.00;57879.81;5038545;28;45540;-74
2022/01/25 12:38:24;;;;;;;;;16.25;15.75;;;;;-146.25;100.00;57879.81;5039684;28;45298;-74
2022/01/25 12:40:59;;;;;;;;;8.33;8.33;;;;;-146.25;100.00;57879.81;5039914;28;45339;-74
2022/01/25 12:43:41;;;;;;;;;24.75;23.00;;;;;-146.25;100.00;57879.81;5039328;28;45513;-75
2022/01/25 12:46:40;;;;;;;;;11.67;10.67;;;;;-146.25;100.00;57879.81;5039247;28;45322;-74